Time;durP1;ratioP1;P1;durP2;ratioP2;P2;SDS_P1;SDS_P2;PMS_P1;PMS_P2;Temp;Humidity;BMP_temperature;BMP_pressure;BME280_temperature;BME280_humidity;BME280_pressure;Samples;Min_cycle;Max_cycle;Signal;HPM_P1;HPM_P2
2023/06/22 00:00:29;;;;;;;27.60;22.10;;;;;;;20.59;77.37;99977.31;220011;1262;140240;-64
2023/06/22 00:05:54;;;;;;;24.50;22.00;;;;;;;20.56;77.54;99977.36;217920;1262;140082;-66
2023/06/22 00:10:59;;;;;;;29.70;24.30;;;;;;;20.53;77.85;99974.38;218351;1262;139688;-65
2023/06/22 00:16:04;;;;;;;28.40;25.40;;;;;;;20.54;78.30;99984.55;217281;1262;140250;-65
2023/06/22 00:21:08;;;;;;;24.20;21.40;;;;;;;20.52;78.82;99980.19;219049;1262;139697;-65
2023/06/22 00:26:11;;;;;;;24.30;22.00;;;;;;;20.50;79.14;99978.48;218423;1262;140196;-64
2023/06/22 00:31:16;;;;;;;27.40;24.50;;;;;;;20.48;79.25;99971.47;217314;1261;139322;-64
2023/06/22 00:36:20;;;;;;;27.90;22.30;;;;;;;20.46;79.39;99974.12;217310;1263;139276;-66
2023/06/22 00:41:28;;;;;;;23.30;21.00;;;;;;;20.41;79.45;99977.83;217529;1261;140221;-69
2023/06/22 00:46:32;;;;;;;23.00;20.50;;;;;;;20.37;79.45;99983.00;217109;1261;141868;-68
2023/06/22 00:51:38;;;;;;;23.10;20.70;;;;;;;20.28;79.19;99983.10;218524;1260;139709;-67
2023/06/22 00:56:43;;;;;;;25.80;21.20;;;;;;;20.18;79.46;99990.36;217408;1261;139814;-69
2023/06/22 01:01:48;;;;;;;22.90;20.50;;;;;;;20.10;79.35;99993.50;218543;1261;140666;-66
2023/06/22 01:07:04;;;;;;;25.50;20.10;;;;;;;20.03;79.36;99999.00;218213;1261;140851;-68
2023/06/22 01:12:11;;;;;;;22.60;20.20;;;;;;;19.97;79.30;100001.94;217652;1261;139944;-65
2023/06/22 01:17:18;;;;;;;22.50;20.10;;;;;;;19.89;79.36;99994.52;216887;1261;140616;-67
2023/06/22 01:22:26;;;;;;;28.20;19.60;;;;;;;19.81;79.46;99996.58;217514;1260;140543;-68
2023/06/22 01:27:45;;;;;;;22.90;20.60;;;;;;;19.73;79.40;99998.98;217960;1259;140439;-71
2023/06/22 01:32:51;;;;;;;24.90;20.50;;;;;;;19.65;79.54;99996.87;218118;1261;139652;-68
2023/06/22 01:37:56;;;;;;;25.80;21.00;;;;;;;19.56;79.41;100003.03;217473;1259;140159;-67
2023/06/22 01:43:05;;;;;;;23.50;20.40;;;;;;;19.49;79.71;100009.52;218360;1262;140374;-69
2023/06/22 01:48:09;;;;;;;21.60;19.40;;;;;;;19.41;79.67;100018.89;219036;1260;139933;-70
2023/06/22 01:53:14;;;;;;;24.00;20.30;;;;;;;19.32;79.87;100011.73;220115;1259;142771;-66
2023/06/22 01:58:31;;;;;;;22.00;19.80;;;;;;;19.29;79.95;100009.23;220174;1260;142529;-70
2023/06/22 02:03:42;;;;;;;20.30;18.20;;;;;;;19.23;79.85;100014.44;219921;1260;141262;-66
2023/06/22 02:08:57;;;;;;;23.80;19.70;;;;;;;19.18;79.83;100020.69;219200;1261;140024;-65
2023/06/22 02:14:02;;;;;;;21.30;19.00;;;;;;;19.13;80.08;100017.65;217460;1260;140015;-68
2023/06/22 02:19:06;;;;;;;24.90;22.30;;;;;;;19.08;80.05;100022.55;219191;1259;140223;-69
2023/06/22 02:24:11;;;;;;;21.70;19.50;;;;;;;19.04;80.11;100028.59;217234;1263;140978;-67
2023/06/22 02:29:15;;;;;;;21.60;18.00;;;;;;;18.98;80.29;100029.71;218718;1259;140600;-68
2023/06/22 02:34:22;;;;;;;21.00;18.40;;;;;;;18.92;80.45;100036.27;218656;1258;139765;-69
2023/06/22 02:39:26;;;;;;;19.30;17.40;;;;;;;18.87;80.79;100043.05;218639;1259;139757;-69
2023/06/22 02:44:31;;;;;;;21.30;19.10;;;;;;;18.85;80.99;100047.33;218036;1260;140124;-69
2023/06/22 02:49:37;;;;;;;22.00;19.40;;;;;;;18.83;80.92;100055.66;217826;1261;140721;-68
2023/06/22 02:54:41;;;;;;;19.80;17.90;;;;;;;18.78;80.89;100054.39;218286;1259;140495;-68
2023/06/22 02:59:46;;;;;;;18.20;16.20;;;;;;;18.75;81.06;100050.91;217758;1261;140824;-68
2023/06/22 03:04:53;;;;;;;17.70;15.80;;;;;;;18.72;81.13;100053.67;217254;1260;139504;-68
2023/06/22 03:09:58;;;;;;;20.70;18.30;;;;;;;18.69;81.05;100058.51;218038;1260;140515;-69
2023/06/22 03:15:05;;;;;;;19.60;17.60;;;;;;;18.69;81.19;100071.41;217690;1260;140965;-68
2023/06/22 03:20:11;;;;;;;21.20;18.00;;;;;;;18.71;81.33;100083.55;218131;1260;140774;-69
2023/06/22 03:25:16;;;;;;;19.10;17.20;;;;;;;18.75;81.39;100079.73;219128;1260;140377;-67
2023/06/22 03:30:19;;;;;;;24.90;17.50;;;;;;;18.81;81.50;100080.37;217536;1263;140187;-67
2023/06/22 03:35:24;;;;;;;17.00;15.30;;;;;;;18.88;81.53;100077.84;218194;1260;140561;-67
2023/06/22 03:40:29;;;;;;;18.00;16.10;;;;;;;18.96;81.54;100088.14;218361;1260;139824;-67
2023/06/22 03:45:33;;;;;;;18.00;15.20;;;;;;;19.11;81.51;100089.06;218940;1259;140195;-67
2023/06/22 03:50:37;;;;;;;18.20;15.80;;;;;;;19.37;81.37;100089.48;220106;1259;140224;-67
2023/06/22 03:55:50;;;;;;;18.40;15.60;;;;;;;19.52;81.35;100107.50;219679;1258;140582;-67
2023/06/22 04:00:54;;;;;;;16.30;14.80;;;;;;;19.88;80.76;100111.14;219946;1260;143075;-68
2023/06/22 04:05:59;;;;;;;14.70;13.20;;;;;;;20.08;80.24;100108.48;219907;1258;140512;-67
2023/06/22 04:11:05;;;;;;;15.10;13.50;;;;;;;20.22;79.93;100115.35;218927;1259;142298;-67
2023/06/22 04:16:10;;;;;;;17.40;13.60;;;;;;;20.33;79.67;100127.02;218964;1259;140996;-67
2023/06/22 04:21:15;;;;;;;21.10;14.50;;;;;;;20.48;79.21;100132.61;217880;1260;140781;-67
2023/06/22 04:26:20;;;;;;;15.30;12.80;;;;;;;20.67;79.01;100137.23;218355;1260;140060;-67
2023/06/22 04:31:31;;;;;;;15.40;13.80;;;;;;;20.81;78.73;100136.09;217678;1260;140085;-67
2023/06/22 04:36:41;;;;;;;15.30;13.90;;;;;;;21.27;78.16;100127.70;217849;1260;140274;-67
2023/06/22 04:41:46;;;;;;;14.00;12.50;;;;;;;22.88;76.29;100131.00;218591;1259;139859;-67
2023/06/22 04:46:53;;;;;;;13.90;12.50;;;;;;;24.44;73.71;100138.16;217712;1257;140075;-66
2023/06/22 04:52:00;;;;;;;12.30;11.10;;;;;;;25.71;70.74;100145.09;217562;1259;141015;-67
2023/06/22 04:57:10;;;;;;;14.00;12.60;;;;;;;25.84;69.31;100144.39;217745;1259;141758;-67
2023/06/22 05:02:15;;;;;;;11.70;10.50;;;;;;;25.59;68.47;100157.52;217533;1258;140360;-67
2023/06/22 05:07:20;;;;;;;12.50;10.60;;;;;;;25.67;67.18;100151.25;218539;1260;140924;-68
2023/06/22 05:12:25;;;;;;;15.20;11.30;;;;;;;26.58;65.48;100149.16;218713;1258;139587;-67
2023/06/22 05:17:31;;;;;;;14.00;9.80;;;;;;;29.38;61.79;100142.52;217385;1262;139927;-68
2023/06/22 05:22:35;;;;;;;13.60;10.00;;;;;;;32.28;58.08;100150.66;219119;1260;139258;-68
2023/06/22 05:27:40;;;;;;;10.30;7.60;;;;;;;34.38;53.97;100156.86;218570;1259;139085;-69
2023/06/22 05:32:47;;;;;;;7.60;6.90;;;;;;;36.19;50.68;100167.02;218708;1259;139302;-70
2023/06/22 05:37:52;;;;;;;6.80;6.30;;;;;;;37.65;47.21;100173.02;218860;1259;140697;-68
2023/06/22 05:42:57;;;;;;;7.50;6.80;;;;;;;38.74;44.83;100174.89;220068;1259;138684;-69
2023/06/22 05:48:03;;;;;;;7.90;7.00;;;;;;;39.70;42.03;100180.60;220108;1259;140803;-70
2023/06/22 05:53:08;;;;;;;5.80;5.10;;;;;;;40.53;40.36;100170.29;219432;1259;140506;-69
2023/06/22 05:58:14;;;;;;;11.60;5.60;;;;;;;41.29;38.29;100169.19;219941;1259;138840;-69
2023/06/22 06:03:21;;;;;;;7.10;5.20;;;;;;;41.87;36.60;100175.27;218525;1259;138238;-69
2023/06/22 06:08:27;;;;;;;8.60;5.40;;;;;;;42.25;35.36;100177.77;218458;1259;138496;-69
2023/06/22 06:13:35;;;;;;;5.50;4.50;;;;;;;42.45;34.38;100176.81;218966;1259;138541;-69
2023/06/22 06:18:40;;;;;;;5.30;4.80;;;;;;;42.45;33.43;100174.25;218633;1259;149816;-69
2023/06/22 06:23:50;;;;;;;4.10;3.70;;;;;;;42.43;32.48;100171.96;218183;1260;141374;-69
2023/06/22 06:29:08;;;;;;;5.50;5.10;;;;;;;42.53;32.18;100175.20;218844;1258;138393;-69
2023/06/22 06:34:24;;;;;;;5.60;5.10;;;;;;;42.65;31.76;100177.36;217588;1259;139066;-69
2023/06/22 06:39:41;;;;;;;6.00;4.20;;;;;;;42.74;31.08;100181.20;217973;1259;139670;-69
2023/06/22 06:44:49;;;;;;;4.60;4.20;;;;;;;42.82;30.48;100184.83;217699;1259;138754;-69
2023/06/22 06:49:59;;;;;;;5.30;4.80;;;;;;;42.74;29.98;100179.34;218385;1259;139866;-69
2023/06/22 06:55:12;;;;;;;5.90;4.60;;;;;;;42.57;29.71;100176.54;217935;1259;140121;-69
2023/06/22 07:00:21;;;;;;;4.10;3.80;;;;;;;42.30;29.64;100175.89;218286;1259;139827;-68
2023/06/22 07:05:26;;;;;;;5.20;4.30;;;;;;;42.14;29.47;100172.33;217336;1262;139284;-69
2023/06/22 07:10:36;;;;;;;4.40;3.50;;;;;;;41.97;29.11;100160.73;217458;1262;139891;-69
2023/06/22 07:15:44;;;;;;;3.50;2.80;;;;;;;41.71;28.76;100161.04;217875;1260;138995;-72
2023/06/22 07:20:58;;;;;;;4.10;3.60;;;;;;;41.65;28.98;100153.02;219303;1258;141293;-72
2023/06/22 07:26:08;;;;;;;3.30;2.70;;;;;;;41.44;29.00;100150.83;217477;1262;139133;-72
2023/06/22 07:31:13;;;;;;;3.60;2.90;;;;;;;40.62;29.25;100142.80;217489;1262;139939;-71
2023/06/22 07:36:18;;;;;;;5.50;3.10;;;;;;;39.67;29.73;100144.85;217353;1260;139118;-71
2023/06/22 07:41:23;;;;;;;1.80;1.70;;;;;;;38.78;29.44;100144.98;220241;1259;140793;-71
2023/06/22 07:46:33;;;;;;;1.60;1.50;;;;;;;38.00;29.47;100146.21;218800;1259;138867;-71
2023/06/22 07:51:43;;;;;;;3.90;2.00;;;;;;;37.08;29.18;100147.58;220143;1259;139576;-71
2023/06/22 07:56:57;;;;;;;7.90;2.60;;;;;;;36.35;29.61;100149.44;217587;1262;205173;-69
2023/06/22 08:02:09;;;;;;;3.50;2.50;;;;;;;35.78;30.33;100153.95;218451;1259;139490;-69
2023/06/22 08:07:26;;;;;;;3.10;2.80;;;;;;;35.14;30.90;100158.84;217795;1259;140206;-69
2023/06/22 08:12:35;;;;;;;5.40;2.40;;;;;;;34.76;32.10;100167.04;218399;1260;139262;-69
2023/06/22 08:17:48;;;;;;;3.10;2.20;;;;;;;34.32;32.30;100168.09;217711;1259;139026;-69
2023/06/22 08:22:57;;;;;;;2.80;2.20;;;;;;;33.92;32.55;100169.48;217712;1259;139308;-69
2023/06/22 08:28:05;;;;;;;3.90;2.50;;;;;;;33.71;32.86;100169.98;217971;1259;138662;-68
2023/06/22 08:33:14;;;;;;;4.60;2.50;;;;;;;33.52;33.70;100175.08;217307;1259;139311;-69
2023/06/22 08:38:33;;;;;;;2.50;2.30;;;;;;;33.37;34.44;100176.49;217229;1259;138526;-69
2023/06/22 08:43:45;;;;;;;2.50;2.30;;;;;;;33.16;34.35;100176.45;217538;1259;141652;-69
2023/06/22 08:48:53;;;;;;;2.70;2.40;;;;;;;32.97;34.41;100186.15;217235;1262;153345;-69
2023/06/22 08:54:06;;;;;;;4.10;2.20;;;;;;;32.79;34.01;100181.33;217422;1259;139203;-69
2023/06/22 08:59:13;;;;;;;2.30;2.10;;;;;;;32.53;33.80;100185.42;217723;1258;139827;-69
2023/06/22 09:04:23;;;;;;;2.60;2.00;;;;;;;32.29;33.42;100186.56;218313;1259;140341;-68
2023/06/22 09:09:33;;;;;;;3.00;2.60;;;;;;;32.24;33.53;100178.28;218119;1259;140126;-69
2023/06/22 09:14:44;;;;;;;4.00;2.60;;;;;;;32.16;33.58;100176.33;218895;1260;139699;-69
2023/06/22 09:19:52;;;;;;;5.30;2.40;;;;;;;32.16;34.42;100170.38;217896;1259;139817;-69
2023/06/22 09:24:59;;;;;;;3.20;2.90;;;;;;;31.97;33.91;100161.34;219903;1259;138997;-69
2023/06/22 09:30:11;;;;;;;2.50;2.30;;;;;;;31.68;34.61;100162.00;219161;1259;139064;-69
2023/06/22 09:35:17;;;;;;;7.60;3.30;;;;;;;31.63;34.69;100155.59;220236;1259;138941;-69
2023/06/22 09:40:23;;;;;;;2.40;2.10;;;;;;;31.78;35.11;100156.36;219610;1259;139139;-68
2023/06/22 09:45:28;;;;;;;4.10;2.40;;;;;;;31.92;34.10;100157.95;220192;1259;139209;-69
2023/06/22 09:50:34;;;;;;;5.30;3.20;;;;;;;31.85;33.14;100151.67;220157;1258;138843;-69
2023/06/22 09:55:44;;;;;;;2.90;2.50;;;;;;;31.71;33.46;100144.98;218968;1259;141106;-68
2023/06/22 10:00:49;;;;;;;3.30;2.70;;;;;;;31.55;33.99;100141.97;218384;1259;139480;-68
2023/06/22 10:05:56;;;;;;;2.60;2.40;;;;;;;31.56;33.98;100139.39;218710;1259;139788;-68
2023/06/22 10:11:18;;;;;;;2.20;2.10;;;;;;;31.47;33.81;100132.94;217347;1260;1027738;-68
2023/06/22 10:16:31;;;;;;;2.30;2.10;;;;;;;31.44;34.02;100138.80;218562;1259;139335;-69
2023/06/22 10:21:44;;;;;;;3.80;3.20;;;;;;;31.34;33.86;100132.77;218655;1260;139248;-69
2023/06/22 10:26:52;;;;;;;2.20;2.10;;;;;;;31.30;33.97;100134.90;218352;1259;139232;-68
2023/06/22 10:31:58;;;;;;;3.50;2.60;;;;;;;31.31;34.24;100141.20;218842;1259;140296;-69
2023/06/22 10:37:05;;;;;;;3.80;2.60;;;;;;;31.27;34.57;100136.50;217818;1260;140196;-69
2023/06/22 10:42:12;;;;;;;3.10;2.60;;;;;;;31.31;34.65;100137.20;217569;1259;139093;-70
2023/06/22 10:47:19;;;;;;;3.40;2.60;;;;;;;31.35;34.42;100132.09;218211;1262;140755;-68
2023/06/22 10:52:27;;;;;;;2.80;2.60;;;;;;;31.39;34.60;100124.85;218416;1258;141211;-68
2023/06/22 10:57:36;;;;;;;2.90;2.60;;;;;;;31.50;34.89;100111.81;217814;1260;140732;-68
2023/06/22 11:02:41;;;;;;;3.20;2.90;;;;;;;31.50;34.75;100111.42;218247;1260;139109;-68
2023/06/22 11:07:49;;;;;;;3.20;2.90;;;;;;;31.43;34.79;100100.99;217336;1260;139758;-68
2023/06/22 11:12:57;;;;;;;4.40;3.30;;;;;;;31.39;35.24;100091.55;218420;1259;139527;-69
2023/06/22 11:18:07;;;;;;;3.30;2.30;;;;;;;31.50;35.13;100094.27;218389;1260;140502;-69
2023/06/22 11:23:17;;;;;;;9.70;2.90;;;;;;;31.57;34.46;100091.46;219034;1259;140410;-68
2023/06/22 11:28:23;;;;;;;2.50;2.30;;;;;;;31.49;34.36;100085.04;218939;1259;140062;-68
2023/06/22 11:33:28;;;;;;;3.70;2.40;;;;;;;31.37;34.02;100076.79;218635;1259;141354;-69
2023/06/22 11:38:38;;;;;;;7.50;3.60;;;;;;;31.35;34.28;100078.95;218837;1259;139711;-68
2023/06/22 11:43:48;;;;;;;7.90;2.70;;;;;;;31.38;34.41;100084.77;217419;1260;139819;-69
2023/06/22 11:48:55;;;;;;;2.30;2.10;;;;;;;31.44;33.82;100088.49;220068;1259;139027;-70
2023/06/22 11:54:03;;;;;;;2.90;2.70;;;;;;;31.46;33.69;100088.15;220186;1260;140042;-72
2023/06/22 11:59:08;;;;;;;3.30;2.90;;;;;;;31.50;33.89;100085.77;220142;1260;139254;-72
2023/06/22 12:04:14;;;;;;;12.10;3.10;;;;;;;31.51;33.63;100075.38;217911;1262;140479;-69
2023/06/22 12:09:20;;;;;;;2.90;2.70;;;;;;;31.51;33.57;100071.68;218659;1260;139563;-69
2023/06/22 12:14:33;;;;;;;3.70;2.50;;;;;;;31.48;33.49;100066.61;218455;1259;139307;-69
2023/06/22 12:19:47;;;;;;;2.40;2.20;;;;;;;31.37;33.16;100060.34;219007;1259;139601;-69
2023/06/22 12:24:55;;;;;;;2.70;2.40;;;;;;;31.25;32.74;100064.30;218400;1260;140161;-69
2023/06/22 12:30:04;;;;;;;2.50;2.30;;;;;;;31.09;32.34;100066.97;217941;1260;139491;-69
2023/06/22 12:35:13;;;;;;;10.80;2.90;;;;;;;31.05;32.11;100070.81;217830;1260;138574;-69
2023/06/22 12:40:21;;;;;;;2.10;2.00;;;;;;;31.04;32.14;100064.27;218193;1260;140110;-71
2023/06/22 12:45:37;;;;;;;2.50;2.30;;;;;;;30.94;31.96;100061.93;217297;1260;139640;-69
2023/06/22 12:50:43;;;;;;;2.60;2.40;;;;;;;30.91;31.86;100060.45;218200;1258;140005;-70
2023/06/22 12:55:53;;;;;;;3.10;2.40;;;;;;;30.91;31.71;100055.50;217480;1260;139112;-69
2023/06/22 13:01:02;;;;;;;2.90;2.50;;;;;;;30.86;31.73;100049.13;218362;1260;139757;-70
2023/06/22 13:06:10;;;;;;;3.10;2.20;;;;;;;30.85;31.71;100039.84;218125;1260;139604;-69
2023/06/22 13:11:21;;;;;;;2.90;2.40;;;;;;;30.80;31.71;100035.02;218577;1259;140250;-70
2023/06/22 13:16:28;;;;;;;2.70;2.50;;;;;;;30.82;31.84;100034.89;219186;1259;138731;-70
2023/06/22 13:21:39;;;;;;;14.70;2.70;;;;;;;30.77;31.86;100032.22;218610;1262;140114;-70
2023/06/22 13:26:45;;;;;;;2.90;2.70;;;;;;;30.75;31.33;100029.25;219460;1259;139708;-70
2023/06/22 13:31:50;;;;;;;3.10;2.80;;;;;;;30.79;31.53;100021.01;217512;1262;138823;-69
2023/06/22 13:36:57;;;;;;;2.70;2.50;;;;;;;30.79;31.19;100011.65;218814;1260;140408;-70
2023/06/22 13:42:05;;;;;;;2.70;2.50;;;;;;;30.74;31.73;100003.20;220108;1258;139622;-72
2023/06/22 13:47:12;;;;;;;2.50;2.40;;;;;;;30.74;31.97;99996.77;219832;1260;139489;-70
2023/06/22 13:52:23;;;;;;;3.40;2.50;;;;;;;30.67;31.97;100002.05;219505;1258;138585;-71
2023/06/22 13:57:35;;;;;;;3.50;2.60;;;;;;;30.53;31.58;99998.14;217700;1260;138857;-67
2023/06/22 14:02:43;;;;;;;2.90;2.60;;;;;;;30.45;31.69;99995.92;219740;1260;140394;-67
2023/06/22 14:07:50;;;;;;;2.60;2.40;;;;;;;30.49;31.99;99995.94;217646;1260;140183;-66
2023/06/22 14:12:56;;;;;;;3.90;2.70;;;;;;;30.62;32.32;99999.41;219997;1259;244841;-69
2023/06/22 14:18:06;;;;;;;3.20;2.80;;;;;;;30.61;32.03;100003.02;218200;1262;139496;-72
2023/06/22 14:23:18;;;;;;;3.10;2.50;;;;;;;30.45;31.90;100014.08;218529;1260;140485;-73
2023/06/22 14:28:26;;;;;;;2.80;2.60;;;;;;;30.36;32.03;100011.67;217976;1260;139360;-72
2023/06/22 14:33:35;;;;;;;4.20;2.60;;;;;;;30.31;32.16;100005.27;218091;1260;138840;-78
2023/06/22 14:38:42;;;;;;;3.80;2.80;;;;;;;30.31;33.03;100006.14;218911;1259;139311;-72
2023/06/22 14:43:51;;;;;;;3.00;2.70;;;;;;;30.34;32.13;100000.39;217995;1262;139692;-73
2023/06/22 14:49:16;;;;;;;4.40;3.00;;;;;;;30.34;32.59;99997.95;217394;1260;139658;-69
2023/06/22 14:54:34;;;;;;;3.00;2.50;;;;;;;30.32;32.21;99989.27;218056;1260;139141;-68
2023/06/22 14:59:42;;;;;;;3.00;2.40;;;;;;;30.30;32.58;99984.73;217906;1260;139417;-72
2023/06/22 15:04:55;;;;;;;3.00;2.70;;;;;;;30.22;32.14;99986.56;217337;1262;138688;-75
2023/06/22 15:10:13;;;;;;;3.10;2.80;;;;;;;29.96;31.94;99990.68;218435;1260;138267;-73
2023/06/22 15:15:23;;;;;;;3.30;2.90;;;;;;;29.76;31.78;99982.27;217668;1262;138576;-73
2023/06/22 15:20:31;;;;;;;2.80;2.60;;;;;;;29.66;32.30;99976.70;218003;1260;138862;-72
2023/06/22 15:25:46;;;;;;;4.00;3.10;;;;;;;29.67;32.83;99976.41;217888;1260;138565;-71
2023/06/22 15:30:52;;;;;;;4.80;3.40;;;;;;;29.66;33.15;99977.50;219156;1262;139841;-71
2023/06/22 15:36:05;;;;;;;2.90;2.70;;;;;;;29.51;33.02;99975.73;219028;1260;139296;-71
2023/06/22 15:41:22;;;;;;;3.00;2.70;;;;;;;29.34;33.22;99974.25;219447;1262;140916;-70
2023/06/22 15:46:31;;;;;;;4.40;3.30;;;;;;;29.28;33.71;99978.73;219148;1259;138984;-70
2023/06/22 15:51:41;;;;;;;3.60;3.20;;;;;;;29.18;33.78;99972.35;220110;1260;139442;-70
2023/06/22 15:56:49;;;;;;;3.20;2.80;;;;;;;29.15;34.21;99973.30;219902;1260;139894;-70
2023/06/22 16:01:59;;;;;;;3.90;3.50;;;;;;;29.15;34.52;99971.34;218473;1260;139388;-70
2023/06/22 16:07:11;;;;;;;2.90;2.70;;;;;;;29.11;34.82;99968.80;218901;1260;139044;-75
2023/06/22 16:12:18;;;;;;;6.00;3.10;;;;;;;29.03;35.10;99971.61;218918;1262;138945;-75
2023/06/22 16:17:27;;;;;;;3.10;2.40;;;;;;;29.01;35.38;99968.23;218592;1260;139565;-69
2023/06/22 16:22:53;;;;;;;3.30;3.00;;;;;;;28.94;34.94;99966.10;218438;1260;139952;-73
2023/06/22 16:28:05;;;;;;;4.30;3.00;;;;;;;28.82;34.87;99965.52;217917;1260;139391;-75
2023/06/22 16:33:27;;;;;;;4.60;3.40;;;;;;;28.75;35.40;99965.85;218158;1258;138757;-75
